Flight Number: EUR3006 Duration: 11:00
Departure: Frankfurt Airport (EDDF) at 08:00 Distance: 5335 Nm
Arrival: Vancouver Airport (CYVR) at 19:00 Equipment: B747

Weather Information
Frankfurt / M-Flughafen, Germany (EDDF) 50-03N 008-36E 113M May 24, 2018 - 05:20 PM EDT / 2018.05.24 2120 UTC
Wind: from the NNE (020 degrees) at 8 MPH (7 KT):0
Visibility: greater than 7 mile(s):0
Sky conditions: mostly cloudy Weather: Towering cumulus clouds observed Temperature: 64 F (18 C) Dew Point: 60 F (16 C) Relative Humidity: 88% Pressure (altimeter): 30.03 in. Hg (1017 hPa)
ob: EDDF 242120Z 02007KT 9999 FEW032TCU SCT060 BKN220 18/16 Q1017 NOSIG cycle: 21
Sunrise: 03:32 Sunset: 19:13 (UTC)

Vancouver International Air-Port, B. C., Canada (CYVR) 49-11N 123-10W 2M May 24, 2018 - 05:00 PM EDT / 2018.05.24 2100 UTC
Wind: from the SE (140 degrees) at 12 MPH (10 KT) gusting to 20 MPH (17 KT) (direction variable):0
Visibility: 30 mile(s):0
Sky conditions: partly cloudy Temperature: 68 F (20 C) Dew Point: 53 F (12 C) Relative Humidity: 59% Pressure (altimeter): 30.05 in. Hg (1017 hPa)
ob: CYVR 242100Z 14010G17KT 100V180 30SM FEW030 SCT230 20/12 A3005 RMK CU1CI2 CONTRAILS SLP178 DENSITY ALT 500FT cycle: 21
Sunrise: 12:22 Sunset: 03:56 (UTC)

TAF:2018/05/24 21:39 TAF CYVR 242038Z 2421/2524 12012G22KT P6SM FEW030 FEW230 BECMG 2502/2504 10008KT FM250700 10008KT P6SM SCT060 TEMPO 2507/2524 BKN060 BECMG 2518/2520 24008KT RMK NXT FCST BY 250000Z

Previous Pireps for this route
Date Aircraft Flight time Fuel used Landing rate On time
2013-06-03A330-20011.03141838-338Charter
2013-07-08B77711.00179441-261Charter
2016-12-29B74711.032045590Yes
(pireps marked green are flown by you)

Route map